Westwood Rainier — C6SI3 — position and weather

sailwx.info

Track history (hours):
 
Tides and Currents Weather Stations Pressure Air Temp Water Temp Dewpoint Dewpoint Depression Visibility Wind Speed Wind Dir Waves Ship Positions

Westwood Rainier

Last reported at 2016-May-26 12:25 UTC. Time now 2016-May-31 00:11 UTC.
Position N 34°51' E 140°18'.

Type: Cargo ship. MMSI: 311348993.

Date/timePositionNaut miles runAvg speedWind from/ knotsBaromVisibWave heightAir tempDewpointWater temp
2016-May-26 12:25N 34°51' E 140°18'2915.2
2016-May-26 10:30N 34°49' E 139°42'1112.0
2016-May-26 09:33N 35°01' E 139°41'1312.8
2016-May-26 08:33N 35°12' E 139°46'1111.2
2016-May-26 07:33N 35°23' E 139°42'1211.9
2016-May-26 06:34N 35°33' E 139°50'4 4.1
2016-May-26 05:29N 35°36' E 139°47'0 0.0
2016-May-26 04:32N 35°36' E 139°47'0 0.0
2016-May-26 03:32N 35°36' E 139°47'0 0.0
2016-May-26 02:32N 35°36' E 139°47'0 0.0
2016-May-26 01:33N 35°36' E 139°47'0 0.0
2016-May-26 00:33N 35°36' E 139°47'0 0.0
2016-May-25 23:33N 35°36' E 139°47'0 0.0
2016-May-25 22:33N 35°36' E 139°47'8 7.9
2016-May-25 21:34N 35°30' E 139°52'1313.0
2016-May-25 20:34N 35°18' E 139°44'1111.0
2016-May-25 19:34N 35°08' E 139°46'8 8.4
2016-May-25 18:34N 34°60' E 139°42'1211.9
2016-May-25 17:33N 34°48' E 139°41'8 3.2
2016-May-25 15:06N 34°40' E 139°41'55 9.2
2016-May-25 09:11N 34°57' E 138°38'30 2.7
2016-May-24 22:18N 34°31' E 138°20'170 5.3
2016-May-23 14:09N 33°45' E 135°01'814.3
2016-May-23 13:33N 33°52' E 134°56'1514.9
2016-May-23 12:33N 34°07' E 134°58'1312.6
2016-May-23 11:33N 34°20' E 134°59'1414.2
2016-May-23 10:33N 34°30' E 135°11'1313.0
2016-May-23 09:33N 34°38' E 135°24'1 0.8
2016-May-23 08:32N 34°38' E 135°25'0 0.0
2016-May-23 07:20N 34°38' E 135°25'0 0.0
2016-May-23 06:32N 34°38' E 135°25'0 0.0
2016-May-23 05:20N 34°38' E 135°25'0 0.0
2016-May-23 04:32N 34°38' E 135°25'0 0.0
2016-May-23 03:32N 34°38' E 135°25'0 0.0
2016-May-23 02:29N 34°38' E 135°25'0 0.0
2016-May-23 01:28N 34°38' E 135°25'0 0.0
2016-May-23 00:31N 34°38' E 135°25'0 0.0
2016-May-22 23:25N 34°38' E 135°25'0 0.0
2016-May-22 22:19N 34°38' E 135°25'1 1.1
2016-May-22 21:33N 34°38' E 135°24'1010.2
2016-May-22 20:34N 34°31' E 135°14'1413.9
2016-May-22 19:33N 34°21' E 135°03'1111.1
2016-May-22 18:34N 34°10' E 135°00'1110.0
2016-May-22 17:25N 33°59' E 134°58'1314.0
2016-May-22 16:31N 33°46' E 134°56'1313.8
2016-May-22 15:33N 33°37' E 134°44'1614.1
2016-May-22 14:26N 33°26' E 134°31'  
2016-May-16 13:04N 34°50' E 139°36'815.2
2016-May-16 12:33N 34°57' E 139°39'  
Track history (hours):
 
Tides and Currents Weather Stations Pressure Air Temp Water Temp Dewpoint Dewpoint Depression Visibility Wind Speed Wind Dir Waves Ship Positions

Westwood Rainier

Last reported at 2016-May-26 12:25 UTC. Time now 2016-May-31 00:11 UTC.
Position N 34°51' E 140°18'.

Type: Cargo ship. MMSI: 311348993.

Date/timePositionNaut miles runAvg speedWind from/ knotsBaromVisibWave heightAir tempDewpointWater temp
2016-May-26 12:25N 34°51' E 140°18'2915.2
2016-May-26 10:30N 34°49' E 139°42'1112.0
2016-May-26 09:33N 35°01' E 139°41'1312.8
2016-May-26 08:33N 35°12' E 139°46'1111.2
2016-May-26 07:33N 35°23' E 139°42'1211.9
2016-May-26 06:34N 35°33' E 139°50'4 4.1
2016-May-26 05:29N 35°36' E 139°47'0 0.0
2016-May-26 04:32N 35°36' E 139°47'0 0.0
2016-May-26 03:32N 35°36' E 139°47'0 0.0
2016-May-26 02:32N 35°36' E 139°47'0 0.0
2016-May-26 01:33N 35°36' E 139°47'0 0.0
2016-May-26 00:33N 35°36' E 139°47'0 0.0
2016-May-25 23:33N 35°36' E 139°47'0 0.0
2016-May-25 22:33N 35°36' E 139°47'8 7.9
2016-May-25 21:34N 35°30' E 139°52'1313.0
2016-May-25 20:34N 35°18' E 139°44'1111.0
2016-May-25 19:34N 35°08' E 139°46'8 8.4
2016-May-25 18:34N 34°60' E 139°42'1211.9
2016-May-25 17:33N 34°48' E 139°41'8 3.2
2016-May-25 15:06N 34°40' E 139°41'55 9.2
2016-May-25 09:11N 34°57' E 138°38'30 2.7
2016-May-24 22:18N 34°31' E 138°20'170 5.3
2016-May-23 14:09N 33°45' E 135°01'814.3
2016-May-23 13:33N 33°52' E 134°56'1514.9
2016-May-23 12:33N 34°07' E 134°58'1312.6
2016-May-23 11:33N 34°20' E 134°59'1414.2
2016-May-23 10:33N 34°30' E 135°11'1313.0
2016-May-23 09:33N 34°38' E 135°24'1 0.8
2016-May-23 08:32N 34°38' E 135°25'0 0.0
2016-May-23 07:20N 34°38' E 135°25'0 0.0
2016-May-23 06:32N 34°38' E 135°25'0 0.0
2016-May-23 05:20N 34°38' E 135°25'0 0.0
2016-May-23 04:32N 34°38' E 135°25'0 0.0
2016-May-23 03:32N 34°38' E 135°25'0 0.0
2016-May-23 02:29N 34°38' E 135°25'0 0.0
2016-May-23 01:28N 34°38' E 135°25'0 0.0
2016-May-23 00:31N 34°38' E 135°25'0 0.0
2016-May-22 23:25N 34°38' E 135°25'0 0.0
2016-May-22 22:19N 34°38' E 135°25'1 1.1
2016-May-22 21:33N 34°38' E 135°24'1010.2
2016-May-22 20:34N 34°31' E 135°14'1413.9
2016-May-22 19:33N 34°21' E 135°03'1111.1
2016-May-22 18:34N 34°10' E 135°00'1110.0
2016-May-22 17:25N 33°59' E 134°58'1314.0
2016-May-22 16:31N 33°46' E 134°56'1313.8
2016-May-22 15:33N 33°37' E 134°44'1614.1
2016-May-22 14:26N 33°26' E 134°31'  
2016-May-16 13:04N 34°50' E 139°36'815.2
2016-May-16 12:33N 34°57' E 139°39'  

Dump ship's entire track history